Time;durP1;ratioP1;P1;durP2;ratioP2;P2;SDS_P1;SDS_P2;PMS_P1;PMS_P2;Temp;Humidity;BMP_temperature;BMP_pressure;BME280_temperature;BME280_humidity;BME280_pressure;Samples;Min_cycle;Max_cycle;Signal;HPM_P1;HPM_P2
2023/10/14 03:00:41;;;;;;;2.43;1.73;;;22.10;52.60;;;;;;5767767;23;45964;-81
2023/10/14 03:03:14;;;;;;;2.93;1.60;;;22.10;52.60;;;;;;4823847;28;45733;-82
2023/10/14 03:05:52;;;;;;;2.60;1.70;;;22.10;52.60;;;;;;4872812;29;45204;-80
2023/10/14 03:08:20;;;;;;;3.80;1.83;;;22.10;52.50;;;;;;4876282;28;45502;-81
2023/10/14 03:10:54;;;;;;;2.15;1.65;;;22.10;52.60;;;;;;4870926;28;46833;-80
2023/10/14 03:13:20;;;;;;;2.50;1.70;;;22.10;52.50;;;;;;4875886;29;45144;-81
2023/10/14 03:15:47;;;;;;;2.67;1.80;;;22.10;52.50;;;;;;4868540;28;45509;-81
2023/10/14 03:18:17;;;;;;;2.95;1.85;;;22.20;52.60;;;;;;4861419;28;45020;-81
2023/10/14 03:23:23;;;;;;;3.10;1.90;;;22.10;52.50;;;;;;4891163;28;45570;-81
2023/10/14 03:25:56;;;;;;;2.50;1.90;;;22.10;52.50;;;;;;4871216;28;45079;-81
2023/10/14 03:28:27;;;;;;;2.80;1.90;;;22.10;52.50;;;;;;4877635;28;45512;-81
2023/10/14 03:30:58;;;;;;;2.20;1.80;;;22.10;52.50;;;;;;4851778;28;45797;-81
2023/10/14 03:33:29;;;;;;;2.47;1.97;;;22.10;52.50;;;;;;4861616;28;46031;-81
2023/10/14 03:36:04;;;;;;;2.80;1.85;;;22.10;52.50;;;;;;4869050;28;45037;-81
2023/10/14 03:38:39;;;;;;;2.78;1.85;;;22.10;52.50;;;;;;4864058;28;45943;-81
2023/10/14 03:41:21;;;;;;;2.53;1.50;;;22.10;52.50;;;;;;4884973;28;45575;-81
2023/10/14 03:46:14;;;;;;;3.13;1.70;;;22.10;52.50;;;;;;4865547;28;45167;-81
2023/10/14 03:48:47;;;;;;;3.20;2.03;;;22.10;52.50;;;;;;4880094;28;45297;-82
2023/10/14 03:51:15;;;;;;;3.10;1.73;;;22.10;52.50;;;;;;4874268;28;46029;-81
2023/10/14 03:53:41;;;;;;;2.58;1.95;;;22.10;52.50;;;;;;4860563;28;45561;-81
2023/10/14 03:56:06;;;;;;;2.75;2.05;;;22.10;52.50;;;;;;4886451;28;45422;-81
2023/10/14 03:58:37;;;;;;;4.75;1.90;;;22.10;52.50;;;;;;4859729;28;45672;-81
2023/10/14 04:01:03;;;;;;;2.35;1.80;;;22.10;52.50;;;;;;4871078;28;46020;-83
2023/10/14 04:03:41;;;;;;;2.00;1.70;;;22.10;52.50;;;;;;4871325;28;46203;-81
2023/10/14 04:06:10;;;;;;;2.53;1.75;;;22.10;52.50;;;;;;4855519;28;44829;-82
2023/10/14 04:08:46;;;;;;;2.10;1.67;;;22.10;52.50;;;;;;4875042;28;45727;-81
2023/10/14 04:11:13;;;;;;;2.97;2.10;;;22.10;52.50;;;;;;4872751;28;47286;-81
2023/10/14 04:19:44;;;;;;;2.67;1.80;;;22.10;52.50;;;;;;4887642;28;45336;-81
2023/10/14 04:22:31;;;;;;;4.30;2.00;;;22.10;52.50;;;;;;4860618;28;46270;-82
2023/10/14 04:27:45;;;;;;;2.15;1.88;;;22.10;52.50;;;;;;4875979;29;45241;-81
2023/10/14 04:30:22;;;;;;;3.50;1.73;;;22.10;52.50;;;;;;4871006;28;45520;-81
2023/10/14 04:33:04;;;;;;;3.90;1.87;;;22.10;52.50;;;;;;4869311;28;45482;-81
2023/10/14 04:35:33;;;;;;;2.70;2.03;;;22.10;52.50;;;;;;4859661;28;45484;-81
2023/10/14 04:38:16;;;;;;;3.30;1.90;;;22.10;52.40;;;;;;4889344;28;45702;-81
2023/10/14 04:40:53;;;;;;;2.38;1.90;;;22.10;52.50;;;;;;4875708;28;45317;-81
2023/10/14 04:45:45;;;;;;;2.50;2.10;;;22.10;52.50;;;;;;4882154;28;45355;-81
2023/10/14 04:48:15;;;;;;;2.75;1.80;;;22.10;52.50;;;;;;4865204;28;45534;-82
2023/10/14 04:50:41;;;;;;;2.20;1.80;;;22.10;52.50;;;;;;4870535;28;45624;-81
2023/10/14 04:53:09;;;;;;;2.95;1.83;;;22.10;52.50;;;;;;4859559;28;45367;-81
2023/10/14 04:55:43;;;;;;;3.38;2.10;;;22.10;52.50;;;;;;4871687;29;45033;-80
2023/10/14 04:58:12;;;;;;;2.50;1.80;;;22.10;52.50;;;;;;4874272;28;45265;-82
2023/10/14 05:00:43;;;;;;;2.43;1.80;;;22.10;52.50;;;;;;4834762;28;45015;-81
2023/10/14 05:03:19;;;;;;;2.20;1.80;;;22.10;52.50;;;;;;4848955;28;46443;-81
2023/10/14 05:05:46;;;;;;;3.03;2.03;;;22.10;52.50;;;;;;4872081;28;45077;-83
2023/10/14 05:08:15;;;;;;;3.05;1.90;;;22.10;52.50;;;;;;4873848;28;45418;-81
2023/10/14 05:10:43;;;;;;;3.10;2.10;;;22.10;52.50;;;;;;4873259;28;45550;-81
2023/10/14 05:13:13;;;;;;;3.05;2.20;;;22.10;52.50;;;;;;4854483;28;46012;-81
2023/10/14 05:15:42;;;;;;;3.50;1.90;;;22.10;52.50;;;;;;4881057;28;44742;-82
2023/10/14 05:18:16;;;;;;;2.65;2.10;;;22.10;52.50;;;;;;4860381;28;45937;-80
2023/10/14 05:23:24;;;;;;;3.70;2.17;;;22.10;52.50;;;;;;4874925;28;45723;-81
2023/10/14 05:25:59;;;;;;;3.80;2.23;;;22.10;52.50;;;;;;4882597;28;45324;-80
2023/10/14 05:28:35;;;;;;;2.83;2.17;;;22.10;52.50;;;;;;4858835;28;45144;-81
2023/10/14 05:31:05;;;;;;;5.00;2.30;;;22.10;52.50;;;;;;4851298;28;45495;-81
2023/10/14 05:33:31;;;;;;;3.40;2.22;;;22.10;52.50;;;;;;4890030;28;46184;-81
2023/10/14 05:35:57;;;;;;;5.90;2.30;;;22.10;52.50;;;;;;4868827;28;45294;-80
2023/10/14 05:38:23;;;;;;;3.47;2.73;;;22.10;52.50;;;;;;4873173;28;45366;-81
2023/10/14 05:40:55;;;;;;;4.50;2.85;;;22.10;52.60;;;;;;4853973;28;45502;-81
2023/10/14 05:43:22;;;;;;;3.15;2.30;;;22.10;52.70;;;;;;4874601;29;47063;-81
2023/10/14 05:45:48;;;;;;;3.33;2.70;;;22.10;52.60;;;;;;4886144;28;45007;-81
2023/10/14 05:48:13;;;;;;;4.73;2.80;;;22.10;52.60;;;;;;4876844;28;45581;-81
2023/10/14 05:50:40;;;;;;;3.93;2.57;;;22.10;52.60;;;;;;4853952;28;45691;-81
2023/10/14 05:53:13;;;;;;;4.32;2.45;;;22.10;52.60;;;;;;4828952;28;46221;-81
2023/10/14 05:55:39;;;;;;;3.53;2.33;;;22.10;52.70;;;;;;4862944;28;45745;-80
2023/10/14 05:58:06;;;;;;;4.32;2.75;;;22.10;52.60;;;;;;4890709;28;47638;-82
2023/10/14 06:00:34;;;;;;;5.50;2.70;;;22.10;53.00;;;;;;4870492;29;45426;-81
2023/10/14 06:03:00;;;;;;;5.37;3.00;;;22.10;52.90;;;;;;4873690;28;45541;-80
2023/10/14 06:05:29;;;;;;;6.85;2.90;;;22.10;53.00;;;;;;4887987;28;44989;-81
2023/10/14 06:08:16;;;;;;;4.10;2.80;;;22.10;53.10;;;;;;4867266;28;45949;-80
2023/10/14 06:10:42;;;;;;;4.00;2.47;;;22.10;52.90;;;;;;4890215;28;45309;-81
2023/10/14 06:13:11;;;;;;;5.13;3.03;;;22.10;53.00;;;;;;4862623;28;46041;-80
2023/10/14 06:15:41;;;;;;;5.75;2.80;;;22.10;53.10;;;;;;4863313;29;45592;-80
2023/10/14 06:18:08;;;;;;;5.15;2.83;;;22.10;53.20;;;;;;4875247;28;45294;-80
2023/10/14 06:20:35;;;;;;;4.50;2.85;;;22.10;53.10;;;;;;4857891;28;46281;-80
2023/10/14 06:23:00;;;;;;;4.47;2.78;;;22.10;53.20;;;;;;4875199;28;46209;-81
2023/10/14 06:25:29;;;;;;;4.53;2.77;;;22.10;53.20;;;;;;4857208;28;45570;-80
2023/10/14 06:27:55;;;;;;;4.07;2.70;;;22.10;53.20;;;;;;4846318;28;45238;-81
2023/10/14 06:30:21;;;;;;;4.13;2.80;;;22.10;53.80;;;;;;4886320;28;45306;-82
2023/10/14 06:32:58;;;;;;;4.40;2.63;;;22.10;53.30;;;;;;4886820;28;46758;-81
2023/10/14 06:35:26;;;;;;;4.60;2.50;;;22.10;53.30;;;;;;4853074;28;44766;-81
2023/10/14 06:37:53;;;;;;;5.23;3.10;;;22.10;53.30;;;;;;4860715;28;45451;-81
2023/10/14 06:40:19;;;;;;;5.63;2.70;;;22.10;53.30;;;;;;4858751;28;45501;-80
2023/10/14 06:43:12;;;;;;;4.78;2.67;;;22.10;53.40;;;;;;4860701;28;45605;-81
2023/10/14 06:45:38;;;;;;;4.00;2.80;;;22.10;53.40;;;;;;4856150;28;44793;-81
2023/10/14 06:48:05;;;;;;;4.50;2.72;;;22.10;53.30;;;;;;4894744;28;45285;-81
2023/10/14 06:50:32;;;;;;;3.33;2.60;;;22.10;53.30;;;;;;4841888;28;45376;-81
2023/10/14 06:52:58;;;;;;;3.60;2.60;;;22.10;53.40;;;;;;4852071;28;45975;-81
2023/10/14 06:55:28;;;;;;;4.43;2.50;;;22.10;53.40;;;;;;4889520;28;44822;-81
2023/10/14 06:57:55;;;;;;;3.95;2.53;;;22.10;53.40;;;;;;4898341;28;45742;-81
2023/10/14 07:00:31;;;;;;;3.50;2.22;;;22.10;53.40;;;;;;4844086;28;45592;-81
2023/10/14 07:03:00;;;;;;;3.57;2.43;;;22.10;53.50;;;;;;4868680;28;45440;-81
2023/10/14 07:05:29;;;;;;;6.32;2.80;;;22.10;53.50;;;;;;4861279;28;45488;-81
2023/10/14 07:07:57;;;;;;;4.77;2.30;;;22.10;53.50;;;;;;4861718;28;45704;-82
2023/10/14 07:10:32;;;;;;;3.10;2.10;;;22.10;53.50;;;;;;4846013;28;45425;-81
2023/10/14 07:12:58;;;;;;;5.07;2.40;;;22.10;53.50;;;;;;4868490;28;46419;-81
2023/10/14 07:15:31;;;;;;;6.25;2.67;;;22.10;53.50;;;;;;4854338;28;45209;-81
2023/10/14 07:17:58;;;;;;;3.55;2.40;;;22.10;53.50;;;;;;4863324;28;45720;-82
2023/10/14 07:20:25;;;;;;;3.90;2.10;;;22.10;53.50;;;;;;4859868;28;45305;-81
2023/10/14 07:22:50;;;;;;;3.10;2.30;;;22.10;53.60;;;;;;4865950;28;46128;-82
2023/10/14 07:25:18;;;;;;;4.32;2.40;;;22.10;53.60;;;;;;4845733;28;45266;-81
2023/10/14 07:27:44;;;;;;;4.22;2.10;;;22.10;53.50;;;;;;4863261;28;45043;-81
2023/10/14 07:30:14;;;;;;;3.27;2.20;;;22.10;53.60;;;;;;4891260;28;45232;-81
2023/10/14 07:32:43;;;;;;;4.55;2.60;;;22.10;53.60;;;;;;4862401;28;46241;-81
2023/10/14 07:35:13;;;;;;;4.37;2.20;;;22.10;53.70;;;;;;4874317;28;45229;-80
2023/10/14 07:37:45;;;;;;;4.07;2.10;;;22.10;53.70;;;;;;4876344;28;44891;-81
2023/10/14 07:40:30;;;;;;;5.85;2.10;;;22.10;53.70;;;;;;4875121;28;45693;-81
2023/10/14 07:43:05;;;;;;;3.78;2.10;;;22.10;53.60;;;;;;4891745;28;46353;-82
2023/10/14 07:45:33;;;;;;;3.70;2.20;;;22.10;53.60;;;;;;4867138;28;45039;-82
2023/10/14 07:47:59;;;;;;;2.90;2.08;;;22.10;53.60;;;;;;4881708;28;45403;-81
2023/10/14 07:50:31;;;;;;;4.30;2.00;;;22.10;53.60;;;;;;4869464;28;45122;-81
2023/10/14 07:53:07;;;;;;;4.65;2.20;;;22.10;53.70;;;;;;4882808;28;47033;-82
2023/10/14 07:55:35;;;;;;;4.13;2.28;;;22.10;53.80;;;;;;4858412;28;45534;-80
2023/10/14 07:58:01;;;;;;;3.83;2.05;;;22.10;54.00;;;;;;4878476;28;44819;-81
2023/10/14 08:00:38;;;;;;;4.77;2.00;;;22.10;54.00;;;;;;4866558;28;45425;-81
2023/10/14 08:03:07;;;;;;;4.28;1.90;;;22.10;53.90;;;;;;4863659;28;45925;-80
2023/10/14 08:05:39;;;;;;;3.85;1.90;;;22.10;53.90;;;;;;4854400;28;45548;-81
2023/10/14 08:08:09;;;;;;;4.90;2.40;;;22.10;53.90;;;;;;4889463;28;45067;-80
2023/10/14 08:10:45;;;;;;;4.47;2.30;;;22.10;54.00;;;;;;4842338;28;45003;-81
2023/10/14 08:13:11;;;;;;;4.40;2.08;;;22.10;54.00;;;;;;4895510;28;45551;-81
2023/10/14 08:15:53;;;;;;;3.28;2.00;;;22.10;53.90;;;;;;4874121;28;44639;-81
2023/10/14 08:18:25;;;;;;;3.57;2.10;;;22.10;53.90;;;;;;4888621;28;45286;-80
2023/10/14 08:20:53;;;;;;;3.38;1.90;;;22.10;53.90;;;;;;4856636;28;45379;-81
2023/10/14 08:23:22;;;;;;;3.55;2.05;;;22.10;53.90;;;;;;4849412;28;46971;-81
2023/10/14 08:25:59;;;;;;;4.85;2.17;;;22.10;53.90;;;;;;4858904;28;45192;-80
2023/10/14 08:28:27;;;;;;;4.30;2.22;;;22.10;53.90;;;;;;4880727;28;45594;-81
2023/10/14 08:30:53;;;;;;;4.35;1.92;;;22.10;53.90;;;;;;4871807;28;44786;-81
2023/10/14 08:33:19;;;;;;;3.58;2.03;;;22.10;54.00;;;;;;4860343;28;46351;-81
2023/10/14 08:35:45;;;;;;;3.95;1.98;;;22.10;53.90;;;;;;4844285;28;45407;-82
2023/10/14 08:38:14;;;;;;;3.53;1.87;;;22.10;54.00;;;;;;4848580;28;45624;-82
2023/10/14 08:40:40;;;;;;;5.00;2.40;;;22.10;54.00;;;;;;4874055;28;45581;-81
2023/10/14 08:43:09;;;;;;;3.25;1.98;;;22.10;54.00;;;;;;4889820;28;45536;-81
2023/10/14 08:45:41;;;;;;;3.30;2.00;;;22.10;54.00;;;;;;4869801;28;45256;-81
2023/10/14 08:48:29;;;;;;;3.00;1.80;;;22.10;54.00;;;;;;4859737;28;46392;-81
2023/10/14 08:50:57;;;;;;;4.27;1.97;;;22.10;53.90;;;;;;4888122;28;45157;-81
2023/10/14 08:53:23;;;;;;;3.92;1.88;;;22.10;53.90;;;;;;4874335;28;46310;-81
2023/10/14 08:55:52;;;;;;;3.20;1.65;;;22.10;54.10;;;;;;4869433;28;45201;-80
2023/10/14 08:58:20;;;;;;;3.10;1.63;;;22.10;54.10;;;;;;4889795;28;45269;-81
2023/10/14 09:00:46;;;;;;;2.93;1.97;;;22.10;54.00;;;;;;4854286;28;45403;-82
2023/10/14 09:03:12;;;;;;;2.90;1.67;;;22.10;54.00;;;;;;4861112;28;48325;-83
2023/10/14 09:05:45;;;;;;;3.72;1.52;;;22.10;53.90;;;;;;4873148;28;45344;-82
2023/10/14 09:08:12;;;;;;;3.28;1.70;;;22.10;53.90;;;;;;4880432;28;45491;-80
2023/10/14 09:10:39;;;;;;;3.42;1.63;;;22.10;53.90;;;;;;4841000;28;45539;-81
2023/10/14 09:13:09;;;;;;;2.53;1.63;;;22.10;53.90;;;;;;4875020;28;46004;-81
2023/10/14 09:15:38;;;;;;;2.53;1.77;;;22.10;53.90;;;;;;4881719;28;45999;-80
2023/10/14 09:18:27;;;;;;;2.25;1.63;;;22.10;53.90;;;;;;4846148;28;45733;-81
2023/10/14 09:20:56;;;;;;;2.47;1.73;;;22.10;53.90;;;;;;4885227;28;45210;-80
2023/10/14 09:23:24;;;;;;;2.03;1.40;;;22.20;54.00;;;;;;4850057;28;46063;-80
2023/10/14 09:25:57;;;;;;;2.42;1.42;;;22.10;53.90;;;;;;4877799;28;45181;-81
2023/10/14 09:28:50;;;;;;;2.53;1.55;;;22.10;53.80;;;;;;4877856;28;45582;-80
2023/10/14 09:31:16;;;;;;;1.93;1.30;;;22.10;53.90;;;;;;4862022;28;45373;-81
2023/10/14 09:33:42;;;;;;;2.85;1.50;;;22.10;53.80;;;;;;4880134;28;46171;-80
2023/10/14 09:36:11;;;;;;;3.33;1.67;;;22.10;53.90;;;;;;4861651;28;45313;-83
2023/10/14 09:38:38;;;;;;;2.22;1.23;;;22.10;53.90;;;;;;4879666;28;46549;-80
2023/10/14 09:41:05;;;;;;;1.85;1.15;;;22.10;53.80;;;;;;4875001;28;46280;-81
2023/10/14 09:43:39;;;;;;;1.98;1.40;;;22.10;53.80;;;;;;4882966;28;46240;-81
2023/10/14 09:46:08;;;;;;;2.05;1.40;;;22.10;53.80;;;;;;4857165;28;45621;-84
2023/10/14 09:48:34;;;;;;;1.83;1.20;;;22.10;53.80;;;;;;4874491;28;45039;-81
2023/10/14 09:51:02;;;;;;;2.65;1.20;;;22.10;53.80;;;;;;4876932;28;46204;-80
2023/10/14 09:53:32;;;;;;;2.45;1.40;;;22.10;53.80;;;;;;4893315;28;47213;-81
2023/10/14 09:56:11;;;;;;;2.37;1.30;;;22.10;53.80;;;;;;4869521;28;45699;-81
2023/10/14 09:58:41;;;;;;;1.98;1.27;;;22.20;53.90;;;;;;4904662;28;45024;-81
2023/10/14 10:01:08;;;;;;;2.65;1.30;;;22.10;53.90;;;;;;4855035;28;45438;-80
2023/10/14 10:03:56;;;;;;;1.50;1.00;;;22.10;53.80;;;;;;4878385;28;46489;-81
2023/10/14 10:06:49;;;;;;;2.05;1.05;;;22.10;53.80;;;;;;4885360;28;45376;-80
2023/10/14 10:09:47;;;;;;;1.75;1.17;;;22.10;53.80;;;;;;4878090;28;45383;-80
2023/10/14 10:12:16;;;;;;;2.70;1.05;;;22.10;53.80;;;;;;4878924;28;45659;-81
2023/10/14 10:14:45;;;;;;;1.87;1.20;;;22.10;53.80;;;;;;4879398;28;46373;-82
2023/10/14 10:17:11;;;;;;;1.73;1.17;;;22.10;53.80;;;;;;4870557;28;45057;-80
2023/10/14 10:20:16;;;;;;;1.23;1.07;;;22.10;53.80;;;;;;4865725;28;45695;-81
2023/10/14 10:22:51;;;;;;;2.17;1.08;;;22.10;53.80;;;;;;4911443;28;45305;-80
2023/10/14 10:25:21;;;;;;;2.00;0.90;;;22.10;53.90;;;;;;4891240;28;46021;-81
2023/10/14 10:27:52;;;;;;;1.60;0.95;;;22.10;53.80;;;;;;4911562;28;46970;-81
2023/10/14 10:30:19;;;;;;;1.38;1.10;;;22.10;53.80;;;;;;4857455;28;45226;-80
2023/10/14 10:32:48;;;;;;;1.53;1.10;;;22.10;53.90;;;;;;4893532;28;44932;-82
2023/10/14 10:35:16;;;;;;;1.95;1.00;;;22.10;53.90;;;;;;4861264;28;46694;-80
2023/10/14 10:37:42;;;;;;;2.22;1.02;;;22.10;53.80;;;;;;4877214;28;45474;-80
2023/10/14 10:40:11;;;;;;;1.40;1.03;;;22.10;53.90;;;;;;4894864;28;45700;-80
2023/10/14 10:42:47;;;;;;;2.33;1.00;;;22.10;53.90;;;;;;4875957;28;45979;-80
2023/10/14 10:45:20;;;;;;;2.25;0.90;;;22.10;53.90;;;;;;4861297;28;46697;-80
2023/10/14 10:48:16;;;;;;;1.07;0.80;;;22.10;53.90;;;;;;4876812;28;45594;-81
2023/10/14 10:50:46;;;;;;;1.70;0.90;;;22.10;53.90;;;;;;4879653;28;45306;-80
2023/10/14 10:53:11;;;;;;;2.00;0.90;;;22.10;53.90;;;;;;4881164;28;44806;-81
2023/10/14 10:55:55;;;;;;;1.13;0.80;;;22.10;53.90;;;;;;4890286;28;47083;-81
2023/10/14 10:58:21;;;;;;;1.90;0.90;;;22.10;53.90;;;;;;4895822;28;45358;-81
2023/10/14 11:00:47;;;;;;;1.07;0.80;;;22.10;53.90;;;;;;4904474;28;45294;-81
2023/10/14 11:03:14;;;;;;;1.70;0.80;;;22.10;53.90;;;;;;4848441;28;46968;-81
2023/10/14 11:05:41;;;;;;;1.58;0.95;;;22.10;54.00;;;;;;4859219;28;45442;-81
2023/10/14 11:08:07;;;;;;;1.43;0.70;;;22.10;53.90;;;;;;4849652;28;45227;-81
2023/10/14 11:10:34;;;;;;;1.23;0.88;;;22.10;53.90;;;;;;4859541;28;45178;-80
2023/10/14 11:13:00;;;;;;;1.35;0.90;;;22.20;54.00;;;;;;4898239;28;45339;-80
2023/10/14 11:15:27;;;;;;;2.00;0.80;;;22.10;53.90;;;;;;4892958;28;46275;-80
2023/10/14 11:17:56;;;;;;;1.48;0.80;;;22.10;53.90;;;;;;4845220;28;44888;-81
2023/10/14 11:20:23;;;;;;;1.80;0.80;;;22.10;53.90;;;;;;4864870;28;46516;-81
2023/10/14 11:22:49;;;;;;;1.00;0.80;;;22.10;53.90;;;;;;4898992;28;45454;-80
2023/10/14 11:25:18;;;;;;;1.90;0.82;;;22.10;53.90;;;;;;4897737;28;45585;-81
2023/10/14 11:27:45;;;;;;;0.90;0.70;;;22.10;53.90;;;;;;4882613;28;45679;-81
2023/10/14 11:30:12;;;;;;;1.33;0.80;;;22.10;54.00;;;;;;4879148;28;45582;-81
2023/10/14 11:32:48;;;;;;;2.28;0.80;;;22.10;54.00;;;;;;4878524;28;44985;-80
2023/10/14 11:35:16;;;;;;;1.90;0.80;;;22.10;54.00;;;;;;4882136;28;45283;-81
2023/10/14 11:37:48;;;;;;;1.10;0.75;;;22.10;54.00;;;;;;4865992;28;45393;-81
2023/10/14 11:40:16;;;;;;;1.08;0.80;;;22.10;54.00;;;;;;4877874;28;45472;-81
2023/10/14 11:42:41;;;;;;;1.38;0.80;;;22.10;54.00;;;;;;4864082;28;45289;-80
2023/10/14 11:45:08;;;;;;;1.23;0.70;;;22.20;54.10;;;;;;4874888;28;46270;-81
2023/10/14 11:47:38;;;;;;;1.40;0.80;;;22.10;54.00;;;;;;4860992;28;45254;-80
2023/10/14 11:50:13;;;;;;;1.13;0.80;;;22.10;54.00;;;;;;4880088;28;45464;-81
2023/10/14 11:52:42;;;;;;;1.17;0.80;;;22.10;54.00;;;;;;4890609;28;44785;-80
2023/10/14 11:55:14;;;;;;;1.10;0.80;;;22.10;54.00;;;;;;4848120;28;46385;-81
2023/10/14 11:58:08;;;;;;;1.35;0.70;;;22.10;54.00;;;;;;4896836;28;45430;-80
2023/10/14 12:00:34;;;;;;;1.20;0.70;;;22.10;54.00;;;;;;4874879;28;45459;-80
2023/10/14 12:03:00;;;;;;;0.73;0.60;;;22.10;54.00;;;;;;4908633;28;45311;-81
2023/10/14 12:05:26;;;;;;;1.37;0.80;;;22.10;54.00;;;;;;4856277;28;45588;-81
2023/10/14 12:07:52;;;;;;;0.88;0.57;;;22.10;54.00;;;;;;4849362;28;45726;-80
2023/10/14 12:10:18;;;;;;;1.03;0.67;;;22.10;54.00;;;;;;4874390;28;45827;-80
2023/10/14 12:12:52;;;;;;;2.13;0.77;;;22.10;54.00;;;;;;4861138;28;46009;-80
2023/10/14 12:15:18;;;;;;;0.57;0.50;;;22.10;54.30;;;;;;4857983;28;46226;-81
2023/10/14 12:17:45;;;;;;;0.80;0.50;;;22.10;54.00;;;;;;4862104;28;44947;-81
2023/10/14 12:20:11;;;;;;;1.00;0.60;;;22.10;54.00;;;;;;4892335;28;45707;-80
2023/10/14 12:22:38;;;;;;;0.98;0.60;;;22.10;54.00;;;;;;4847500;28;44762;-80
2023/10/14 12:25:04;;;;;;;0.70;0.60;;;22.10;54.00;;;;;;4892490;28;45191;-80
2023/10/14 12:27:33;;;;;;;1.50;0.80;;;22.10;54.00;;;;;;4891166;28;45312;-81
2023/10/14 12:30:00;;;;;;;0.88;0.60;;;22.20;54.10;;;;;;4877981;28;45524;-81
2023/10/14 12:32:32;;;;;;;0.83;0.50;;;22.10;54.00;;;;;;4843867;28;45292;-81
2023/10/14 12:35:04;;;;;;;0.85;0.57;;;22.10;54.00;;;;;;4874990;28;47248;-81
2023/10/14 12:37:31;;;;;;;1.80;0.60;;;22.10;54.00;;;;;;4877744;28;46287;-80
2023/10/14 12:39:57;;;;;;;1.10;0.70;;;22.10;54.00;;;;;;4879834;28;46166;-81
2023/10/14 12:42:38;;;;;;;1.00;0.60;;;22.10;54.00;;;;;;4854911;28;45578;-81
2023/10/14 12:45:11;;;;;;;0.70;0.43;;;22.10;54.00;;;;;;4861809;28;46701;-80
2023/10/14 12:47:38;;;;;;;0.90;0.50;;;22.10;54.00;;;;;;4862304;28;45241;-80
2023/10/14 12:50:05;;;;;;;0.90;0.68;;;22.10;54.00;;;;;;4893931;28;45669;-80
2023/10/14 12:52:33;;;;;;;0.70;0.60;;;22.10;54.00;;;;;;4872180;28;45303;-81
2023/10/14 12:54:58;;;;;;;0.90;0.60;;;22.10;54.10;;;;;;4879835;28;46366;-80
2023/10/14 12:57:25;;;;;;;1.13;0.70;;;22.10;54.00;;;;;;4860530;28;45513;-80
2023/10/14 12:59:51;;;;;;;1.08;0.50;;;22.10;54.10;;;;;;4879105;28;45263;-80
2023/10/14 13:02:17;;;;;;;0.77;0.60;;;22.10;54.10;;;;;;4870838;28;45210;-79
2023/10/14 13:04:43;;;;;;;0.90;0.45;;;22.10;54.10;;;;;;4861096;28;47235;-81
2023/10/14 13:07:08;;;;;;;0.98;0.50;;;22.10;54.10;;;;;;4844671;28;45581;-80
2023/10/14 13:09:38;;;;;;;0.93;0.60;;;22.10;54.10;;;;;;4861208;28;45784;-80
2023/10/14 13:12:17;;;;;;;0.70;0.60;;;22.10;54.10;;;;;;4877164;28;46313;-80
2023/10/14 13:14:45;;;;;;;0.63;0.60;;;22.10;54.10;;;;;;4880951;28;45020;-81
2023/10/14 13:17:10;;;;;;;0.63;0.50;;;22.10;54.10;;;;;;4870909;28;45560;-80
2023/10/14 13:19:36;;;;;;;0.57;0.40;;;22.10;54.00;;;;;;4869809;28;45587;-80
2023/10/14 13:22:03;;;;;;;0.70;0.45;;;22.10;54.10;;;;;;4859052;28;45474;-81
2023/10/14 13:24:31;;;;;;;0.82;0.50;;;22.10;54.10;;;;;;4876187;28;45449;-81
2023/10/14 13:26:59;;;;;;;1.65;0.47;;;22.10;54.10;;;;;;4890686;28;45334;-80
2023/10/14 13:29:26;;;;;;;0.77;0.50;;;22.10;54.00;;;;;;4881230;28;45309;-79
2023/10/14 13:31:51;;;;;;;0.95;0.55;;;22.10;54.00;;;;;;4887411;28;45592;-80
2023/10/14 13:34:18;;;;;;;0.60;0.50;;;22.10;54.10;;;;;;4861604;28;46168;-80
2023/10/14 13:36:44;;;;;;;0.65;0.50;;;22.10;54.10;;;;;;4887999;28;44687;-80
2023/10/14 13:39:15;;;;;;;1.15;0.60;;;22.10;54.00;;;;;;4880142;28;45235;-80
2023/10/14 13:41:43;;;;;;;0.73;0.50;;;22.10;54.00;;;;;;4892491;28;45306;-81
2023/10/14 13:44:11;;;;;;;1.20;0.60;;;22.10;54.00;;;;;;4844434;28;46183;-81
2023/10/14 13:46:38;;;;;;;1.23;0.63;;;22.10;54.00;;;;;;4876921;28;45603;-80
2023/10/14 13:49:04;;;;;;;0.50;0.40;;;22.10;54.00;;;;;;4894609;28;45846;-80
2023/10/14 13:51:30;;;;;;;0.73;0.50;;;22.10;54.00;;;;;;4889572;28;45650;-81
2023/10/14 13:54:04;;;;;;;0.70;0.50;;;22.10;54.00;;;;;;4894008;28;46805;-80
2023/10/14 13:56:31;;;;;;;1.02;0.60;;;22.10;54.00;;;;;;4875909;28;45361;-81
2023/10/14 13:58:57;;;;;;;0.45;0.40;;;22.10;54.60;;;;;;4877700;28;45344;-80
2023/10/14 14:01:23;;;;;;;1.63;0.50;;;22.10;54.00;;;;;;4872394;28;45521;-80
2023/10/14 14:03:58;;;;;;;0.60;0.50;;;22.10;54.60;;;;;;4863695;28;45615;-80
2023/10/14 14:06:28;;;;;;;1.30;0.50;;;22.10;54.00;;;;;;4875795;28;45141;-80
2023/10/14 14:08:54;;;;;;;0.80;0.60;;;22.10;54.00;;;;;;4897869;28;45548;-80
2023/10/14 14:11:23;;;;;;;1.15;0.60;;;22.10;54.00;;;;;;4876464;28;46059;-80
2023/10/14 14:13:52;;;;;;;0.93;0.47;;;22.10;54.00;;;;;;4877240;28;46160;-80
2023/10/14 14:16:23;;;;;;;0.88;0.40;;;22.20;54.10;;;;;;4857960;28;45298;-80
2023/10/14 14:18:49;;;;;;;0.98;0.50;;;22.10;54.00;;;;;;4868016;28;46282;-81
2023/10/14 14:21:17;;;;;;;1.60;0.50;;;22.10;54.00;;;;;;4855434;28;45294;-80
2023/10/14 14:23:44;;;;;;;1.57;0.70;;;22.10;54.10;;;;;;4896334;28;45239;-82
2023/10/14 14:26:18;;;;;;;0.98;0.57;;;22.10;54.00;;;;;;4872129;28;45808;-80
2023/10/14 14:28:44;;;;;;;1.20;0.60;;;22.10;54.00;;;;;;4902658;28;45557;-80
2023/10/14 14:31:12;;;;;;;1.27;0.50;;;22.10;54.00;;;;;;4851742;28;45764;-81
2023/10/14 14:33:40;;;;;;;1.08;0.60;;;22.10;54.00;;;;;;4865722;28;46444;-81
2023/10/14 14:36:10;;;;;;;1.17;0.60;;;22.10;53.90;;;;;;4870759;28;44917;-80
2023/10/14 14:38:40;;;;;;;1.60;0.60;;;22.10;53.90;;;;;;4895300;28;45531;-81
2023/10/14 14:41:07;;;;;;;1.00;0.50;;;22.10;53.90;;;;;;4874139;28;45651;-80
2023/10/14 14:43:35;;;;;;;0.87;0.50;;;22.10;53.90;;;;;;4879821;28;46144;-80
2023/10/14 14:46:00;;;;;;;0.80;0.50;;;22.10;53.90;;;;;;4856277;28;45187;-81
2023/10/14 14:48:26;;;;;;;0.70;0.60;;;22.10;54.00;;;;;;4864274;28;45351;-80
2023/10/14 14:50:52;;;;;;;1.60;0.70;;;22.10;53.90;;;;;;4875524;28;45612;-81
2023/10/14 14:53:19;;;;;;;1.35;0.50;;;22.10;53.90;;;;;;4861946;28;46534;-80
2023/10/14 14:55:45;;;;;;;1.23;0.63;;;22.10;53.90;;;;;;4876218;28;45820;-81
2023/10/14 14:58:14;;;;;;;1.45;0.68;;;22.10;53.90;;;;;;4896800;28;44673;-81
2023/10/14 15:00:41;;;;;;;0.95;0.60;;;22.10;53.90;;;;;;4873155;28;45496;-81
2023/10/14 15:03:10;;;;;;;1.20;0.60;;;22.10;53.90;;;;;;4844235;28;47955;-80
2023/10/14 15:05:41;;;;;;;1.73;0.60;;;22.10;53.80;;;;;;4848120;28;45287;-80
2023/10/14 15:08:10;;;;;;;1.02;0.50;;;22.10;53.80;;;;;;4902131;28;45559;-80
2023/10/14 15:10:36;;;;;;;0.90;0.50;;;22.10;53.80;;;;;;4865429;28;45381;-80
2023/10/14 15:13:03;;;;;;;1.20;0.63;;;22.10;53.80;;;;;;4848097;28;45139;-81
2023/10/14 15:15:29;;;;;;;1.33;0.70;;;22.10;54.40;;;;;;4860450;28;45083;-81
2023/10/14 15:17:55;;;;;;;1.05;0.60;;;22.10;53.80;;;;;;4863955;28;45775;-80
2023/10/14 15:20:44;;;;;;;0.68;0.60;;;22.10;53.80;;;;;;4879313;28;45388;-81
2023/10/14 15:23:11;;;;;;;1.10;0.50;;;22.10;53.80;;;;;;4883884;28;46262;-80
2023/10/14 15:25:37;;;;;;;1.03;0.60;;;22.10;53.80;;;;;;4847852;28;46117;-80
2023/10/14 15:28:08;;;;;;;1.20;0.70;;;22.10;53.80;;;;;;4847616;28;45132;-79
2023/10/14 15:30:38;;;;;;;1.77;0.80;;;22.10;53.70;;;;;;4876759;28;45267;-81
2023/10/14 15:33:07;;;;;;;1.40;0.60;;;22.10;53.70;;;;;;4860013;28;46008;-81
2023/10/14 15:35:33;;;;;;;1.20;0.68;;;22.10;53.70;;;;;;4851296;28;46009;-81
2023/10/14 15:38:01;;;;;;;1.70;0.77;;;22.10;53.70;;;;;;4862220;28;45091;-81
2023/10/14 15:40:28;;;;;;;1.73;0.70;;;22.10;53.70;;;;;;4843576;28;45704;-80
2023/10/14 15:42:53;;;;;;;2.45;0.80;;;22.10;53.70;;;;;;4863220;28;46485;-79
2023/10/14 15:45:25;;;;;;;0.98;0.60;;;22.10;53.70;;;;;;4857092;28;45819;-81
2023/10/14 15:48:01;;;;;;;1.08;0.50;;;22.10;53.60;;;;;;4879995;28;46088;-81
2023/10/14 15:50:28;;;;;;;1.57;0.70;;;22.10;53.60;;;;;;4878152;28;46152;-79
2023/10/14 15:52:56;;;;;;;1.70;0.75;;;22.10;53.60;;;;;;4915516;28;45561;-80
2023/10/14 15:55:28;;;;;;;2.05;0.77;;;22.10;53.60;;;;;;4857482;28;46550;-81
2023/10/14 15:57:56;;;;;;;1.67;0.60;;;22.10;53.60;;;;;;4864386;28;45549;-80
2023/10/14 16:00:30;;;;;;;1.42;0.80;;;22.10;53.50;;;;;;4843674;28;46115;-80
2023/10/14 16:03:07;;;;;;;1.30;0.70;;;22.10;53.50;;;;;;4875490;28;46323;-80
2023/10/14 16:05:37;;;;;;;1.90;0.70;;;22.10;53.50;;;;;;4877837;28;45506;-80
2023/10/14 16:08:04;;;;;;;1.45;0.80;;;22.10;53.50;;;;;;4896282;28;45172;-80
2023/10/14 16:10:31;;;;;;;2.08;0.98;;;22.10;53.50;;;;;;4874925;28;44845;-81
2023/10/14 16:13:03;;;;;;;1.45;0.70;;;22.10;53.50;;;;;;4895099;28;47325;-81
2023/10/14 16:15:29;;;;;;;1.80;0.90;;;22.10;53.40;;;;;;4850040;28;46092;-80
2023/10/14 16:17:56;;;;;;;1.63;0.73;;;22.10;54.00;;;;;;4855726;28;44785;-81
2023/10/14 16:20:23;;;;;;;1.30;0.70;;;22.10;53.40;;;;;;4874809;28;46168;-80